Time;durP1;ratioP1;P1;durP2;ratioP2;P2;SDS_P1;SDS_P2;PMS_P1;PMS_P2;Temp;Humidity;BMP_temperature;BMP_pressure;BME280_temperature;BME280_humidity;BME280_pressure;Samples;Min_cycle;Max_cycle;Signal;HPM_P1;HPM_P2
2022/03/29 00:00:17;;;;;;;23.90;18.50;;;11.70;54.90;;;;;;6185792;23;20588;-89
2022/03/29 00:02:44;;;;;;;23.43;16.70;;;11.70;55.00;;;;;;6199122;23;20378;-88
2022/03/29 00:05:12;;;;;;;27.17;17.23;;;11.70;55.20;;;;;;6213812;23;20402;-88
2022/03/29 00:07:39;;;;;;;23.57;17.20;;;11.60;55.30;;;;;;6200493;23;20425;-89
2022/03/29 00:10:06;;;;;;;23.47;17.70;;;11.60;55.60;;;;;;6186056;23;20409;-89
2022/03/29 00:12:34;;;;;;;23.90;18.20;;;11.50;55.70;;;;;;6185182;23;20394;-89
2022/03/29 00:15:01;;;;;;;21.27;16.90;;;11.50;55.90;;;;;;6184890;23;20448;-89
2022/03/29 00:17:27;;;;;;;17.10;15.30;;;11.40;56.10;;;;;;6184905;23;20433;-89
2022/03/29 00:19:54;;;;;;;22.57;16.70;;;11.40;56.20;;;;;;6184990;23;20742;-89
2022/03/29 00:22:22;;;;;;;22.83;17.00;;;11.40;56.10;;;;;;6185498;23;20402;-89
2022/03/29 00:24:49;;;;;;;21.13;16.83;;;11.40;56.30;;;;;;6197792;23;20394;-89
2022/03/29 00:27:15;;;;;;;19.67;17.57;;;11.30;56.40;;;;;;6204568;23;20407;-90
2022/03/29 00:29:42;;;;;;;20.73;16.73;;;11.30;56.70;;;;;;6186699;23;20402;-87
2022/03/29 00:32:10;;;;;;;24.00;17.47;;;11.20;56.90;;;;;;6189152;23;20402;-87
2022/03/29 00:34:37;;;;;;;21.73;17.87;;;11.10;57.20;;;;;;6186660;23;20445;-88
2022/03/29 00:37:04;;;;;;;21.33;15.50;;;11.20;57.10;;;;;;6188566;23;20414;-88
2022/03/29 00:39:33;;;;;;;25.43;18.33;;;11.10;56.80;;;;;;6205841;23;20381;-88
2022/03/29 00:42:00;;;;;;;18.87;16.50;;;11.10;56.80;;;;;;6185740;23;20412;-88
2022/03/29 00:44:30;;;;;;;24.23;17.67;;;11.10;56.80;;;;;;6186133;23;20732;-88
2022/03/29 00:46:58;;;;;;;20.47;17.10;;;11.10;57.10;;;;;;6190023;23;20398;-89
2022/03/29 00:49:24;;;;;;;20.80;15.30;;;11.00;57.10;;;;;;6189703;23;20861;-91
2022/03/29 00:51:55;;;;;;;21.40;16.90;;;11.00;57.20;;;;;;6188786;23;20712;-89
2022/03/29 00:54:22;;;;;;;23.80;16.53;;;11.00;57.20;;;;;;6191210;23;20386;-89
2022/03/29 00:56:50;;;;;;;20.53;16.40;;;11.00;57.20;;;;;;6193535;23;20748;-89
2022/03/29 00:59:18;;;;;;;21.63;15.90;;;11.00;57.40;;;;;;6186752;23;20494;-89
2022/03/29 01:01:45;;;;;;;22.30;16.40;;;11.00;57.20;;;;;;6187305;23;20402;-89
2022/03/29 01:04:14;;;;;;;27.53;17.67;;;10.90;57.20;;;;;;6188980;23;20402;-89
2022/03/29 01:06:41;;;;;;;27.60;19.20;;;10.90;57.40;;;;;;6187883;23;20967;-89
2022/03/29 01:09:08;;;;;;;24.50;17.40;;;10.80;57.50;;;;;;6187240;23;20388;-89
2022/03/29 01:11:34;;;;;;;24.67;18.63;;;10.80;57.70;;;;;;6202882;23;20418;-89
2022/03/29 01:14:03;;;;;;;23.70;17.20;;;10.80;57.70;;;;;;6208906;23;20419;-89
2022/03/29 01:19:20;;;;;;;23.73;17.00;;;10.80;57.80;;;;;;6215459;23;20374;-89
2022/03/29 01:21:55;;;;;;;28.17;17.17;;;10.80;57.70;;;;;;6214454;23;20383;-89
2022/03/29 01:24:22;;;;;;;22.30;18.07;;;10.80;57.80;;;;;;6209595;23;20382;-89
2022/03/29 01:26:50;;;;;;;20.53;16.30;;;10.70;58.00;;;;;;6194555;23;20439;-89
2022/03/29 01:29:24;;;;;;;28.57;20.23;;;10.70;58.00;;;;;;6195751;23;20418;-89
2022/03/29 01:31:52;;;;;;;23.67;16.30;;;10.60;58.30;;;;;;6207355;23;20390;-89
2022/03/29 01:34:19;;;;;;;25.33;16.57;;;10.70;58.40;;;;;;6209552;23;20413;-89
2022/03/29 01:36:46;;;;;;;24.13;17.30;;;10.60;58.60;;;;;;6191778;23;20456;-89
2022/03/29 01:39:15;;;;;;;21.80;17.30;;;10.50;58.80;;;;;;6189675;23;20393;-89
2022/03/29 01:41:42;;;;;;;17.67;15.50;;;10.40;58.80;;;;;;6187881;23;20402;-89
2022/03/29 01:44:09;;;;;;;20.67;16.87;;;10.40;58.80;;;;;;6195608;23;20410;-88
2022/03/29 01:46:36;;;;;;;20.37;16.83;;;10.40;58.90;;;;;;6188800;23;20405;-88
2022/03/29 01:49:04;;;;;;;22.17;16.73;;;10.40;58.80;;;;;;6187622;23;20820;-89
2022/03/29 01:51:31;;;;;;;28.93;17.77;;;10.40;59.00;;;;;;6186708;23;20425;-88
2022/03/29 01:54:00;;;;;;;24.63;17.00;;;10.30;59.00;;;;;;6185931;23;20406;-88
2022/03/29 01:56:29;;;;;;;19.77;15.80;;;10.20;59.30;;;;;;6185924;23;20434;-88
2022/03/29 01:58:56;;;;;;;17.63;15.63;;;10.20;59.60;;;;;;6185610;23;20422;-88
2022/03/29 02:01:23;;;;;;;23.03;15.33;;;10.10;59.80;;;;;;6187830;23;20904;-89
2022/03/29 02:03:50;;;;;;;18.07;15.63;;;10.10;59.90;;;;;;6209806;23;20396;-89
2022/03/29 02:06:17;;;;;;;19.70;15.43;;;10.10;59.80;;;;;;6188947;23;20402;-89
2022/03/29 02:08:43;;;;;;;22.10;15.60;;;10.10;59.90;;;;;;6187386;23;20434;-89
2022/03/29 02:11:10;;;;;;;19.63;16.10;;;10.10;60.00;;;;;;6185604;23;20416;-89
2022/03/29 02:13:39;;;;;;;23.30;17.20;;;10.20;60.00;;;;;;6187694;23;20940;-89
2022/03/29 02:16:06;;;;;;;19.97;14.87;;;10.10;59.70;;;;;;6189193;23;20955;-89
2022/03/29 02:18:32;;;;;;;20.00;15.87;;;10.10;59.50;;;;;;6190615;23;20441;-88
2022/03/29 02:20:59;;;;;;;19.70;14.83;;;10.10;59.50;;;;;;6185679;23;20402;-89
2022/03/29 02:23:26;;;;;;;18.93;14.10;;;10.10;59.50;;;;;;6200595;23;20394;-87
2022/03/29 02:25:53;;;;;;;18.73;15.90;;;10.10;59.40;;;;;;6213506;23;20393;-89
2022/03/29 02:28:19;;;;;;;19.53;15.53;;;10.10;59.50;;;;;;6211785;23;20430;-88
2022/03/29 02:30:47;;;;;;;19.10;15.50;;;10.10;59.50;;;;;;6197679;23;20884;-88
2022/03/29 02:33:15;;;;;;;16.70;14.70;;;10.10;59.40;;;;;;6186419;23;20413;-90
2022/03/29 02:35:43;;;;;;;21.77;15.70;;;10.10;59.30;;;;;;6185997;23;20492;-89
2022/03/29 02:38:11;;;;;;;18.53;16.10;;;10.20;59.40;;;;;;6185285;23;20434;-89
2022/03/29 02:40:39;;;;;;;26.73;15.90;;;10.20;59.50;;;;;;6185192;23;20494;-89
2022/03/29 02:43:06;;;;;;;22.87;17.10;;;10.20;59.50;;;;;;6184492;23;20908;-89
2022/03/29 02:45:32;;;;;;;19.60;15.87;;;10.20;59.40;;;;;;6185273;23;20409;-89
2022/03/29 02:48:00;;;;;;;19.43;15.40;;;10.20;59.40;;;;;;6188003;23;20437;-84
2022/03/29 02:50:28;;;;;;;22.20;17.27;;;10.20;59.40;;;;;;6212072;23;20367;-84
2022/03/29 02:52:56;;;;;;;20.50;16.23;;;10.20;59.50;;;;;;6195344;23;20436;-84
2022/03/29 02:55:25;;;;;;;19.37;16.23;;;10.10;59.50;;;;;;6185173;23;20397;-85
2022/03/29 02:57:52;;;;;;;18.40;13.73;;;10.10;59.60;;;;;;6187303;23;20981;-85
2022/03/29 03:00:20;;;;;;;19.90;15.33;;;10.10;59.60;;;;;;6190665;23;20400;-85
2022/03/29 03:02:48;;;;;;;18.43;16.53;;;10.10;59.60;;;;;;6186345;23;20414;-85
2022/03/29 03:05:16;;;;;;;27.33;15.43;;;10.10;59.70;;;;;;6211377;23;20402;-84
2022/03/29 03:07:44;;;;;;;18.30;15.50;;;10.00;59.90;;;;;;6200954;23;20398;-85
2022/03/29 03:10:13;;;;;;;23.90;16.23;;;10.10;60.20;;;;;;6206274;23;20375;-83
2022/03/29 03:12:41;;;;;;;25.40;16.47;;;10.00;60.40;;;;;;6212277;23;20366;-83
2022/03/29 03:15:09;;;;;;;22.93;15.83;;;10.00;60.50;;;;;;6203289;23;20405;-84
2022/03/29 03:17:36;;;;;;;20.67;16.60;;;10.00;60.20;;;;;;6203621;23;20444;-84
2022/03/29 03:20:04;;;;;;;21.30;16.80;;;10.00;60.30;;;;;;6187547;23;20398;-84
2022/03/29 03:22:33;;;;;;;24.37;17.10;;;9.90;61.70;;;;;;6188143;23;20394;-84
2022/03/29 03:25:00;;;;;;;25.53;18.47;;;9.90;62.00;;;;;;6186453;23;20421;-84
2022/03/29 03:27:27;;;;;;;23.13;16.03;;;9.90;61.90;;;;;;6185739;23;20904;-84
2022/03/29 03:29:54;;;;;;;20.23;16.60;;;9.90;61.90;;;;;;6207641;23;20492;-82
2022/03/29 03:32:20;;;;;;;25.47;18.43;;;9.90;61.80;;;;;;6206091;23;20405;-82
2022/03/29 03:34:47;;;;;;;22.83;17.80;;;9.90;61.80;;;;;;6194040;23;20412;-83
2022/03/29 03:37:14;;;;;;;25.87;17.77;;;9.90;61.60;;;;;;6185658;23;20811;-84
2022/03/29 03:39:42;;;;;;;23.83;16.60;;;9.80;61.70;;;;;;6185114;23;20414;-84
2022/03/29 03:42:10;;;;;;;19.63;16.27;;;9.90;61.80;;;;;;6197721;23;20421;-84
2022/03/29 03:44:37;;;;;;;20.50;17.60;;;9.90;61.90;;;;;;6188447;23;20409;-84
2022/03/29 03:47:04;;;;;;;28.20;17.80;;;9.90;61.80;;;;;;6196387;23;20402;-84
2022/03/29 03:49:31;;;;;;;19.03;15.97;;;9.80;61.80;;;;;;6194398;23;20433;-85
2022/03/29 03:51:58;;;;;;;21.33;17.20;;;9.80;61.80;;;;;;6197360;23;20896;-85
2022/03/29 03:54:25;;;;;;;24.03;16.93;;;9.80;61.90;;;;;;6186642;23;20401;-85
2022/03/29 03:56:53;;;;;;;19.93;16.50;;;9.80;62.20;;;;;;6185912;23;20446;-84
2022/03/29 03:59:19;;;;;;;20.57;15.50;;;9.70;62.50;;;;;;6185360;23;20405;-85
2022/03/29 04:01:46;;;;;;;23.53;16.60;;;9.70;62.70;;;;;;6199417;23;20402;-83
2022/03/29 04:04:13;;;;;;;27.00;20.20;;;9.70;63.50;;;;;;6191494;23;20402;-84
2022/03/29 04:06:39;;;;;;;17.57;15.07;;;9.70;62.90;;;;;;6195261;23;20390;-83
2022/03/29 04:09:06;;;;;;;19.53;15.70;;;9.60;62.80;;;;;;6208502;23;20425;-83
2022/03/29 04:11:33;;;;;;;20.57;16.40;;;9.60;62.80;;;;;;6200849;23;20469;-85
2022/03/29 04:14:01;;;;;;;23.00;17.50;;;9.60;62.80;;;;;;6186731;23;20406;-86
2022/03/29 04:16:28;;;;;;;26.53;16.07;;;9.60;63.10;;;;;;6187623;23;20453;-85
2022/03/29 04:18:55;;;;;;;20.93;16.67;;;9.50;63.40;;;;;;6206453;23;20507;-84
2022/03/29 04:21:21;;;;;;;19.87;17.63;;;9.50;63.90;;;;;;6212500;23;20481;-88
2022/03/29 04:23:48;;;;;;;19.27;15.83;;;9.50;63.80;;;;;;6195645;23;20406;-87
2022/03/29 04:26:15;;;;;;;20.60;16.43;;;9.40;64.10;;;;;;6187682;23;20765;-85
2022/03/29 04:28:42;;;;;;;20.20;15.50;;;9.40;64.60;;;;;;6186568;23;20770;-87
2022/03/29 04:31:14;;;;;;;21.70;15.37;;;9.30;64.50;;;;;;6190233;23;20418;-89
2022/03/29 04:33:41;;;;;;;20.80;16.87;;;9.30;64.70;;;;;;6208680;23;20409;-87
2022/03/29 04:36:08;;;;;;;16.03;13.80;;;9.30;65.00;;;;;;6197606;23;20425;-88
2022/03/29 04:38:35;;;;;;;18.87;16.00;;;9.30;65.10;;;;;;6199896;23;20444;-87
2022/03/29 04:41:01;;;;;;;18.90;15.73;;;9.30;65.50;;;;;;6190532;23;20474;-86
2022/03/29 04:43:28;;;;;;;26.20;15.27;;;9.20;65.60;;;;;;6190792;23;20424;-87
2022/03/29 04:45:55;;;;;;;19.67;16.30;;;9.20;66.10;;;;;;6189409;23;20390;-86
2022/03/29 04:48:23;;;;;;;26.40;16.23;;;9.20;66.30;;;;;;6195514;23;20952;-86
2022/03/29 04:50:50;;;;;;;21.70;16.30;;;9.20;66.50;;;;;;6194680;23;20405;-86
2022/03/29 04:53:17;;;;;;;23.27;18.80;;;9.20;66.30;;;;;;6200981;23;20414;-86
2022/03/29 04:55:45;;;;;;;20.13;16.17;;;9.20;66.30;;;;;;6197787;23;20416;-86
2022/03/29 04:58:12;;;;;;;25.90;17.73;;;9.20;66.30;;;;;;6189773;23;20468;-87
2022/03/29 05:00:39;;;;;;;29.03;21.80;;;9.10;66.40;;;;;;6188867;23;20421;-86
2022/03/29 05:03:06;;;;;;;25.07;17.43;;;9.10;66.70;;;;;;6188777;23;20401;-86
2022/03/29 05:05:35;;;;;;;24.00;18.40;;;9.00;66.60;;;;;;6207561;23;20468;-88
2022/03/29 05:08:02;;;;;;;23.00;16.23;;;9.10;66.80;;;;;;6208696;23;20434;-86
2022/03/29 05:10:30;;;;;;;21.00;16.53;;;9.10;66.60;;;;;;6190200;23;20396;-86
2022/03/29 05:12:57;;;;;;;27.67;18.43;;;9.10;66.40;;;;;;6195051;23;20410;-87
2022/03/29 05:15:24;;;;;;;22.10;17.90;;;9.10;66.40;;;;;;6191532;23;20420;-87
2022/03/29 05:17:51;;;;;;;25.70;18.73;;;9.10;66.20;;;;;;6193311;23;20849;-88
2022/03/29 05:20:18;;;;;;;21.90;16.73;;;9.10;66.20;;;;;;6198700;23;20406;-85
2022/03/29 05:22:48;;;;;;;24.27;17.03;;;9.00;67.10;;;;;;6204622;23;20477;-89
2022/03/29 05:25:16;;;;;;;26.80;17.50;;;9.00;67.40;;;;;;6214230;23;20386;-88
2022/03/29 05:27:43;;;;;;;22.00;16.83;;;9.00;67.60;;;;;;6212880;23;20401;-89
2022/03/29 05:30:11;;;;;;;21.60;17.43;;;9.00;67.80;;;;;;6214477;23;20389;-89
2022/03/29 05:32:39;;;;;;;26.20;16.30;;;9.10;67.30;;;;;;6213417;23;20402;-88
2022/03/29 05:35:08;;;;;;;28.67;17.67;;;9.10;67.10;;;;;;6205166;23;20447;-87
2022/03/29 05:37:36;;;;;;;24.50;17.97;;;9.10;66.80;;;;;;6195017;23;20442;-87
2022/03/29 05:40:06;;;;;;;26.90;17.80;;;9.20;66.80;;;;;;6191652;23;20410;-87
2022/03/29 05:42:37;;;;;;;23.90;18.20;;;9.20;66.60;;;;;;6191177;23;20390;-86
2022/03/29 05:45:05;;;;;;;29.60;17.50;;;9.30;66.30;;;;;;6193026;23;20394;-86
2022/03/29 05:50:16;;;;;;;32.37;19.23;;;9.40;66.60;;;;;;6190913;23;20370;-86
2022/03/29 05:52:43;;;;;;;21.50;18.23;;;9.50;66.10;;;;;;6189132;23;20438;-86
2022/03/29 05:55:11;;;;;;;22.90;16.83;;;9.50;66.20;;;;;;6189069;23;20426;-87
2022/03/29 05:57:38;;;;;;;22.27;17.70;;;9.60;66.10;;;;;;6189073;23;20790;-86
2022/03/29 06:00:06;;;;;;;23.57;16.30;;;9.60;65.90;;;;;;6207157;23;20481;-88
2022/03/29 06:02:33;;;;;;;25.93;18.30;;;9.70;65.30;;;;;;6210819;23;20413;-86
2022/03/29 06:05:00;;;;;;;27.93;19.93;;;9.70;64.90;;;;;;6194801;23;20439;-87
2022/03/29 06:07:27;;;;;;;22.83;17.20;;;9.80;64.90;;;;;;6191748;23;20638;-87
2022/03/29 06:09:54;;;;;;;28.23;17.97;;;9.80;64.80;;;;;;6204459;23;20394;-88
2022/03/29 06:12:23;;;;;;;23.87;16.70;;;9.80;64.70;;;;;;6192999;23;20414;-88
2022/03/29 06:14:49;;;;;;;35.33;20.10;;;9.80;64.70;;;;;;6211583;23;20789;-86
2022/03/29 06:17:17;;;;;;;24.60;17.97;;;9.90;64.20;;;;;;6211229;23;20433;-86
2022/03/29 06:19:43;;;;;;;25.60;18.27;;;10.00;63.00;;;;;;6198781;23;20912;-86
2022/03/29 06:22:10;;;;;;;17.60;15.70;;;10.00;62.60;;;;;;6191526;23;20398;-87
2022/03/29 06:24:37;;;;;;;21.47;16.37;;;10.10;62.50;;;;;;6209990;23;20402;-86
2022/03/29 06:27:05;;;;;;;22.33;16.90;;;10.20;62.00;;;;;;6211794;23;20412;-85
2022/03/29 06:29:34;;;;;;;30.43;19.20;;;10.20;61.80;;;;;;6193928;23;20414;-86
2022/03/29 06:32:01;;;;;;;31.73;20.23;;;10.40;61.90;;;;;;6190611;23;20417;-85
2022/03/29 06:34:29;;;;;;;21.30;18.00;;;10.50;61.60;;;;;;6206485;23;20442;-88
2022/03/29 06:36:56;;;;;;;33.30;21.90;;;10.60;61.00;;;;;;6211307;23;20498;-87
2022/03/29 06:39:23;;;;;;;24.03;17.97;;;10.60;60.90;;;;;;6211176;23;20413;-86
2022/03/29 06:41:50;;;;;;;25.57;18.37;;;10.80;61.00;;;;;;6201498;23;20411;-86
2022/03/29 06:44:17;;;;;;;26.00;19.50;;;10.90;60.20;;;;;;6194133;23;20410;-86
2022/03/29 06:46:46;;;;;;;27.63;19.30;;;11.00;59.80;;;;;;6190766;23;20402;-86
2022/03/29 06:49:13;;;;;;;28.60;19.47;;;11.20;59.40;;;;;;6189527;23;20436;-87
2022/03/29 06:51:44;;;;;;;21.97;17.03;;;11.30;59.10;;;;;;6198387;23;20414;-86
2022/03/29 06:54:11;;;;;;;27.70;19.20;;;11.30;59.00;;;;;;6189971;23;20392;-86
2022/03/29 06:56:38;;;;;;;27.73;18.53;;;11.40;59.00;;;;;;6190146;23;20442;-85
2022/03/29 06:59:04;;;;;;;25.67;18.27;;;11.50;58.60;;;;;;6188112;23;20443;-85
2022/03/29 07:01:32;;;;;;;26.30;18.43;;;11.60;58.50;;;;;;6189755;23;20416;-85
2022/03/29 07:04:02;;;;;;;24.63;17.90;;;11.60;58.30;;;;;;6191560;23;20477;-85
2022/03/29 07:06:31;;;;;;;20.13;17.50;;;11.60;58.40;;;;;;6191237;23;20410;-86
2022/03/29 07:11:40;;;;;;;23.13;16.70;;;11.70;58.30;;;;;;6177540;23;20389;-87
2022/03/29 07:14:07;;;;;;;28.90;19.13;;;11.80;58.00;;;;;;6210810;23;20399;-86
2022/03/29 07:16:34;;;;;;;26.10;19.10;;;11.90;58.10;;;;;;6203976;23;20403;-85
2022/03/29 07:19:03;;;;;;;21.83;17.07;;;12.00;57.80;;;;;;6191933;23;20522;-85
2022/03/29 07:21:29;;;;;;;23.77;18.90;;;12.00;57.40;;;;;;6189989;23;20397;-86
2022/03/29 07:23:56;;;;;;;29.07;18.10;;;12.00;57.10;;;;;;6190379;23;20403;-85
2022/03/29 07:26:23;;;;;;;23.17;18.33;;;12.10;57.20;;;;;;6209960;23;20409;-86
2022/03/29 07:28:49;;;;;;;37.33;18.10;;;12.20;56.40;;;;;;6209836;23;20425;-85
2022/03/29 07:31:16;;;;;;;23.37;17.90;;;12.30;56.20;;;;;;6193515;23;20412;-87
2022/03/29 07:33:43;;;;;;;26.13;17.60;;;12.10;55.80;;;;;;6201945;23;20401;-88
2022/03/29 07:36:11;;;;;;;26.50;20.57;;;12.30;56.30;;;;;;6212871;23;20401;-89
2022/03/29 07:38:38;;;;;;;21.63;16.17;;;12.50;56.20;;;;;;6200443;23;20468;-87
2022/03/29 07:41:05;;;;;;;22.07;18.27;;;12.60;56.00;;;;;;6208205;23;20737;-86
2022/03/29 07:43:32;;;;;;;22.90;18.80;;;12.70;55.60;;;;;;6193984;23;20418;-86
2022/03/29 07:45:58;;;;;;;26.67;19.23;;;12.80;55.50;;;;;;6195041;23;20409;-86
2022/03/29 07:48:26;;;;;;;26.00;19.30;;;12.90;55.40;;;;;;6203263;23;20473;-87
2022/03/29 07:50:53;;;;;;;26.03;19.60;;;13.20;55.50;;;;;;6209709;23;20416;-87
2022/03/29 07:53:24;;;;;;;32.13;19.70;;;13.40;54.70;;;;;;6199730;23;20394;-87
2022/03/29 07:55:55;;;;;;;27.40;21.67;;;13.50;54.20;;;;;;6203196;23;20394;-86
2022/03/29 07:58:23;;;;;;;23.27;18.83;;;13.60;53.90;;;;;;6205127;23;20438;-87
2022/03/29 08:00:51;;;;;;;26.17;17.87;;;13.70;53.30;;;;;;6197341;23;20412;-86
2022/03/29 08:03:27;;;;;;;24.00;20.47;;;13.80;53.50;;;;;;6194317;23;20406;-86
2022/03/29 08:05:57;;;;;;;32.83;19.57;;;13.90;52.80;;;;;;6201538;23;20417;-87
2022/03/29 08:08:32;;;;;;;30.30;20.57;;;14.30;52.80;;;;;;6198753;23;20433;-86
2022/03/29 08:10:59;;;;;;;21.53;19.20;;;14.70;51.80;;;;;;6192609;23;20386;-88
2022/03/29 08:13:27;;;;;;;36.40;21.67;;;14.90;51.00;;;;;;6191451;23;20505;-87
2022/03/29 08:15:58;;;;;;;31.13;20.83;;;15.20;51.10;;;;;;6193513;23;20406;-86
2022/03/29 08:18:25;;;;;;;25.70;20.53;;;15.30;50.60;;;;;;6192195;23;20475;-86
2022/03/29 08:20:52;;;;;;;27.43;20.87;;;15.60;50.30;;;;;;6194320;23;20964;-87
2022/03/29 08:23:20;;;;;;;26.80;20.63;;;16.00;50.10;;;;;;6191719;23;20449;-86
2022/03/29 08:25:48;;;;;;;32.87;20.17;;;16.20;49.30;;;;;;6191113;23;20705;-86
2022/03/29 08:28:16;;;;;;;22.40;19.40;;;16.20;49.40;;;;;;6191526;23;20449;-87
2022/03/29 08:30:49;;;;;;;31.30;20.20;;;16.20;49.30;;;;;;6191243;23;20440;-86
2022/03/29 08:33:19;;;;;;;35.03;21.20;;;16.40;48.70;;;;;;6194462;23;20374;-86
2022/03/29 08:35:46;;;;;;;24.10;20.43;;;16.30;48.30;;;;;;6195096;23;20406;-86
2022/03/29 08:38:16;;;;;;;31.70;20.30;;;16.80;48.10;;;;;;6200286;23;20454;-88
2022/03/29 08:40:46;;;;;;;30.07;20.30;;;17.00;47.20;;;;;;6201805;23;20402;-87
2022/03/29 08:43:17;;;;;;;24.00;20.33;;;17.10;47.10;;;;;;6207003;23;20396;-87
2022/03/29 08:45:49;;;;;;;26.73;20.30;;;17.00;46.60;;;;;;6195627;23;20417;-87
2022/03/29 08:48:16;;;;;;;27.40;20.90;;;16.70;47.10;;;;;;6192984;23;20410;-85
2022/03/29 08:50:45;;;;;;;22.90;20.17;;;16.60;47.10;;;;;;6188361;23;20916;-85
2022/03/29 08:53:15;;;;;;;22.67;20.07;;;16.40;47.30;;;;;;6208984;23;20421;-83
2022/03/29 08:55:44;;;;;;;29.20;19.33;;;15.90;48.20;;;;;;6214149;23;20445;-85
2022/03/29 08:58:11;;;;;;;24.80;20.33;;;15.90;48.60;;;;;;6213203;23;20429;-84
2022/03/29 09:00:39;;;;;;;24.13;19.80;;;15.70;48.90;;;;;;6212988;23;20412;-83
2022/03/29 09:03:06;;;;;;;31.13;20.73;;;15.70;49.60;;;;;;6200838;23;20448;-84
2022/03/29 09:05:32;;;;;;;23.17;18.80;;;15.50;50.20;;;;;;6190246;23;20421;-86
2022/03/29 09:08:03;;;;;;;25.80;18.80;;;15.50;50.70;;;;;;6189131;23;20402;-84
2022/03/29 09:10:41;;;;;;;24.10;19.00;;;15.70;50.40;;;;;;6189266;23;20791;-84
2022/03/29 09:13:15;;;;;;;25.00;18.50;;;16.00;50.20;;;;;;6191094;23;20448;-86
2022/03/29 09:15:44;;;;;;;26.97;18.87;;;16.60;49.00;;;;;;6189206;23;20896;-86
2022/03/29 09:18:11;;;;;;;24.70;19.73;;;17.40;47.50;;;;;;6187678;23;20496;-86
2022/03/29 09:20:38;;;;;;;23.87;19.03;;;17.90;47.00;;;;;;6189474;23;20548;-86
2022/03/29 09:23:05;;;;;;;26.93;20.93;;;19.10;45.70;;;;;;6187610;23;20417;-86
2022/03/29 09:25:36;;;;;;;29.17;20.50;;;19.50;43.90;;;;;;6187664;23;20406;-86
2022/03/29 09:28:05;;;;;;;24.73;20.23;;;18.90;43.60;;;;;;6186128;23;20390;-86
2022/03/29 09:30:38;;;;;;;22.60;19.13;;;18.70;44.70;;;;;;6185733;23;20500;-86
2022/03/29 09:33:12;;;;;;;26.93;19.10;;;18.50;44.90;;;;;;6185839;23;20390;-86
2022/03/29 09:35:54;;;;;;;27.83;19.67;;;18.60;44.90;;;;;;6187095;23;20414;-86
2022/03/29 09:38:23;;;;;;;22.00;19.60;;;18.60;44.20;;;;;;6189190;23;20450;-86
2022/03/29 09:40:50;;;;;;;24.33;20.07;;;19.00;44.00;;;;;;6186480;23;20425;-86
2022/03/29 09:43:16;;;;;;;27.67;19.87;;;19.10;43.90;;;;;;6186729;23;20984;-86
2022/03/29 09:45:47;;;;;;;24.70;19.30;;;20.00;43.10;;;;;;6186469;23;20410;-86
2022/03/29 09:48:33;;;;;;;23.47;20.10;;;20.30;42.30;;;;;;6204718;23;20391;-85
2022/03/29 09:51:17;;;;;;;23.63;21.10;;;21.30;41.20;;;;;;6213526;23;20409;-85
2022/03/29 09:53:47;;;;;;;196.73;42.73;;;21.30;40.20;;;;;;6213886;23;20387;-85
2022/03/29 09:56:19;;;;;;;26.83;20.30;;;21.40;39.80;;;;;;6213654;23;20431;-84
2022/03/29 09:58:46;;;;;;;26.40;18.90;;;21.50;39.90;;;;;;6205372;23;20539;-86
2022/03/29 10:01:23;;;;;;;27.90;20.97;;;21.70;39.60;;;;;;6206344;23;20443;-84
2022/03/29 10:03:53;;;;;;;24.93;20.00;;;21.40;39.60;;;;;;6213188;23;20378;-85
2022/03/29 10:06:22;;;;;;;20.97;18.00;;;22.10;39.50;;;;;;6211671;23;20394;-85
2022/03/29 10:11:36;;;;;;;20.67;17.83;;;23.10;37.70;;;;;;6193757;23;20405;-86
2022/03/29 10:14:04;;;;;;;23.33;18.03;;;23.20;36.70;;;;;;6213525;23;20389;-85
2022/03/29 10:16:31;;;;;;;20.67;18.27;;;23.70;36.10;;;;;;6213707;23;20382;-85
2022/03/29 10:19:00;;;;;;;23.40;18.07;;;24.10;35.20;;;;;;6207294;23;20458;-86
2022/03/29 10:21:28;;;;;;;20.50;18.07;;;23.70;35.70;;;;;;6211554;23;20407;-86
2022/03/29 10:23:56;;;;;;;23.73;19.97;;;24.90;34.70;;;;;;6211074;23;20415;-85
2022/03/29 10:26:25;;;;;;;19.53;17.00;;;25.00;34.20;;;;;;6208143;23;20412;-86
2022/03/29 10:28:52;;;;;;;21.37;18.17;;;26.10;33.10;;;;;;6203607;23;20433;-85
2022/03/29 10:31:34;;;;;;;21.60;19.60;;;26.30;32.50;;;;;;6204854;23;20409;-86
2022/03/29 10:34:17;;;;;;;19.30;17.30;;;26.10;32.00;;;;;;6202102;23;20496;-86
2022/03/29 10:37:08;;;;;;;21.20;17.13;;;24.90;32.80;;;;;;6198571;23;20393;-87
2022/03/29 10:39:44;;;;;;;26.07;19.50;;;24.20;33.90;;;;;;6191653;23;20488;-88
2022/03/29 10:42:36;;;;;;;25.43;18.10;;;23.60;34.40;;;;;;6193067;23;20390;-86
2022/03/29 10:45:22;;;;;;;21.40;17.50;;;23.60;34.90;;;;;;6201777;23;20499;-86
2022/03/29 10:48:05;;;;;;;21.93;17.63;;;23.80;34.90;;;;;;6191245;23;20759;-86
2022/03/29 10:50:57;;;;;;;23.13;18.93;;;24.00;34.30;;;;;;6207471;23;20417;-85
2022/03/29 10:53:24;;;;;;;21.27;17.73;;;24.30;34.00;;;;;;6203673;23;20867;-87
2022/03/29 10:56:16;;;;;;;20.40;17.87;;;24.10;34.50;;;;;;6186544;23;21015;-86
2022/03/29 10:59:10;;;;;;;20.80;17.13;;;24.00;34.30;;;;;;6187245;23;20469;-87
2022/03/29 11:01:39;;;;;;;23.23;19.70;;;23.40;34.60;;;;;;6186727;23;20406;-87
2022/03/29 11:04:07;;;;;;;21.13;18.00;;;23.30;35.00;;;;;;6206351;23;20403;-86
2022/03/29 11:06:36;;;;;;;21.70;18.77;;;23.20;35.40;;;;;;6193969;23;20402;-86
2022/03/29 11:09:05;;;;;;;22.00;19.23;;;23.00;35.50;;;;;;6191328;23;20937;-86
2022/03/29 11:11:40;;;;;;;21.20;18.93;;;22.90;36.00;;;;;;6201096;23;20923;-87
2022/03/29 11:14:38;;;;;;;21.83;19.20;;;23.00;36.10;;;;;;6211121;23;20421;-86
2022/03/29 11:17:41;;;;;;;18.30;16.17;;;23.30;35.50;;;;;;6192113;23;20411;-87
2022/03/29 11:20:32;;;;;;;19.20;16.77;;;23.90;34.70;;;;;;6186337;23;20416;-87
2022/03/29 11:23:05;;;;;;;20.63;18.33;;;24.30;34.80;;;;;;6186335;23;20769;-87
2022/03/29 11:25:39;;;;;;;24.10;19.23;;;25.00;33.80;;;;;;6186070;23;20405;-86
2022/03/29 11:28:07;;;;;;;19.63;17.07;;;25.20;32.60;;;;;;6184865;23;20421;-86
2022/03/29 11:30:35;;;;;;;21.13;17.70;;;25.40;32.70;;;;;;6191660;23;20433;-86
2022/03/29 11:33:03;;;;;;;21.03;19.03;;;26.70;31.60;;;;;;6211447;23;20378;-85
2022/03/29 11:35:30;;;;;;;20.67;18.07;;;27.40;30.00;;;;;;6202845;23;20430;-86
2022/03/29 11:38:09;;;;;;;18.83;16.83;;;28.70;29.00;;;;;;6186434;23;20400;-87
2022/03/29 11:40:37;;;;;;;20.40;18.20;;;29.70;28.20;;;;;;6186046;23;20392;-87
2022/03/29 11:43:05;;;;;;;23.27;20.03;;;29.90;27.30;;;;;;6185781;23;20492;-87
2022/03/29 11:45:40;;;;;;;22.03;19.80;;;28.90;27.40;;;;;;6186163;23;20406;-86
2022/03/29 11:48:12;;;;;;;22.60;20.30;;;28.30;27.90;;;;;;6185881;23;20421;-87
2022/03/29 11:50:40;;;;;;;20.90;18.70;;;28.50;28.50;;;;;;6185519;23;20382;-87
2022/03/29 11:53:20;;;;;;;23.83;21.33;;;28.00;28.50;;;;;;6184758;23;20716;-87
2022/03/29 11:55:58;;;;;;;20.97;18.77;;;27.80;28.80;;;;;;6185747;23;20377;-86
2022/03/29 11:58:27;;;;;;;22.17;19.93;;;27.90;29.10;;;;;;6185194;23;20445;-86
2022/03/29 12:00:59;;;;;;;22.83;20.10;;;28.20;29.00;;;;;;6185591;23;20793;-86
2022/03/29 12:03:32;;;;;;;24.67;18.10;;;27.90;28.50;;;;;;6185750;23;20853;-87
2022/03/29 12:06:12;;;;;;;21.27;18.80;;;27.70;28.80;;;;;;6186808;23;20471;-87
2022/03/29 12:08:52;;;;;;;20.87;18.50;;;27.30;28.80;;;;;;6187830;23;20422;-86
2022/03/29 12:11:20;;;;;;;21.53;19.17;;;26.50;29.30;;;;;;6186688;23;20806;-87
2022/03/29 12:13:48;;;;;;;21.10;18.90;;;26.00;29.70;;;;;;6186377;23;20413;-86
2022/03/29 12:16:22;;;;;;;21.90;19.60;;;25.60;30.00;;;;;;6185569;23;20933;-87
2022/03/29 12:18:50;;;;;;;23.27;20.00;;;25.10;30.50;;;;;;6185504;23;20448;-86
2022/03/29 12:21:19;;;;;;;22.70;19.43;;;25.20;30.80;;;;;;6184923;23;20748;-87
2022/03/29 12:23:48;;;;;;;20.80;18.60;;;25.00;31.00;;;;;;6187959;23;20409;-86
2022/03/29 12:26:18;;;;;;;22.03;19.70;;;24.90;30.90;;;;;;6197316;23;20398;-86
2022/03/29 12:28:46;;;;;;;22.33;19.80;;;24.50;31.20;;;;;;6207601;23;20417;-87
2022/03/29 12:31:17;;;;;;;22.20;19.80;;;23.30;32.60;;;;;;6198460;23;20411;-87
2022/03/29 12:33:45;;;;;;;22.00;19.27;;;23.80;33.00;;;;;;6193931;23;20393;-86
2022/03/29 12:36:13;;;;;;;20.53;18.33;;;23.80;32.30;;;;;;6186294;23;20409;-87
2022/03/29 12:38:47;;;;;;;22.17;19.17;;;24.00;32.40;;;;;;6186285;23;20456;-86
2022/03/29 12:41:16;;;;;;;20.37;18.43;;;24.60;31.90;;;;;;6185800;23;20393;-86
2022/03/29 12:43:53;;;;;;;21.53;18.10;;;25.00;31.50;;;;;;6195030;23;20469;-87
2022/03/29 12:46:22;;;;;;;25.67;20.00;;;25.20;31.20;;;;;;6197847;23;20403;-87
2022/03/29 12:48:49;;;;;;;21.30;19.07;;;25.40;30.70;;;;;;6189814;23;20951;-86